createdAt,value
2023-12-12T00:00:16.029Z,2.63
2023-12-12T00:02:42.859Z,2.35
2023-12-12T00:05:09.838Z,2.65
2023-12-12T00:07:36.756Z,2.40
2023-12-12T00:10:05.136Z,2.92
2023-12-12T00:12:32.184Z,2.25
2023-12-12T00:14:59.116Z,2.28
2023-12-12T00:17:26.130Z,2.33
2023-12-12T00:19:53.127Z,2.17
2023-12-12T00:22:20.026Z,2.00
2023-12-12T00:24:47.501Z,1.98
2023-12-12T00:27:14.383Z,2.40
2023-12-12T00:29:42.088Z,2.00
2023-12-12T00:32:08.962Z,2.83
2023-12-12T00:34:36.488Z,2.67
2023-12-12T00:37:03.532Z,2.30
2023-12-12T00:39:30.404Z,2.30
2023-12-12T00:41:57.576Z,2.42
2023-12-12T00:44:24.396Z,2.03
2023-12-12T00:46:51.266Z,2.10
2023-12-12T00:49:18.427Z,2.05
2023-12-12T00:51:45.361Z,2.30
2023-12-12T00:54:12.211Z,2.03
2023-12-12T00:56:39.050Z,1.60
2023-12-12T00:59:05.925Z,1.67
2023-12-12T01:01:32.836Z,1.85
2023-12-12T01:03:59.944Z,2.10
2023-12-12T01:06:29.279Z,1.77
2023-12-12T01:08:56.773Z,1.73
2023-12-12T01:11:23.652Z,1.50
2023-12-12T01:13:50.525Z,1.30
2023-12-12T01:16:17.528Z,1.75
2023-12-12T01:18:44.559Z,1.40
2023-12-12T01:21:11.486Z,1.60
2023-12-12T01:23:54.495Z,1.40
2023-12-12T01:26:22.159Z,1.20
2023-12-12T01:28:49.246Z,1.48
2023-12-12T01:31:17.106Z,1.17
2023-12-12T01:33:44.165Z,1.48
2023-12-12T01:36:11.485Z,1.45
2023-12-12T01:38:38.566Z,1.58
2023-12-12T01:41:05.747Z,1.50
2023-12-12T01:43:33.209Z,1.67
2023-12-12T01:46:01.007Z,1.48
2023-12-12T01:48:29.294Z,1.30
2023-12-12T01:50:56.934Z,1.15
2023-12-12T01:53:35.939Z,1.40
2023-12-12T01:56:02.987Z,1.25
2023-12-12T01:58:29.954Z,1.55
2023-12-12T02:00:57.037Z,1.52
2023-12-12T02:03:24.470Z,1.65
2023-12-12T02:05:51.752Z,1.70
2023-12-12T02:08:18.839Z,1.50
2023-12-12T02:10:45.978Z,1.90
2023-12-12T02:13:12.921Z,1.95
2023-12-12T02:15:39.821Z,1.70
2023-12-12T02:18:06.785Z,2.17
2023-12-12T02:20:33.676Z,1.63
2023-12-12T02:23:00.599Z,1.92
2023-12-12T02:25:27.794Z,1.83
2023-12-12T02:27:54.994Z,1.90
2023-12-12T02:30:22.197Z,2.05
2023-12-12T02:32:49.136Z,1.95
2023-12-12T02:35:16.143Z,1.77
2023-12-12T02:37:42.991Z,2.35
2023-12-12T02:40:10.158Z,1.73
2023-12-12T02:42:37.037Z,2.38
2023-12-12T02:45:04.018Z,1.98
2023-12-12T02:47:31.167Z,2.00
2023-12-12T02:49:58.227Z,2.78
2023-12-12T02:52:25.216Z,2.25
2023-12-12T02:54:52.188Z,1.85
2023-12-12T02:57:19.038Z,2.15
2023-12-12T02:59:46.012Z,1.83
2023-12-12T03:02:12.852Z,2.05
2023-12-12T03:04:43.339Z,1.98
2023-12-12T03:07:10.331Z,1.60
2023-12-12T03:09:37.236Z,2.03
2023-12-12T03:12:04.265Z,1.75
2023-12-12T03:14:31.148Z,1.80
2023-12-12T03:17:01.050Z,1.48
2023-12-12T03:19:29.024Z,1.80
2023-12-12T03:21:55.942Z,2.25
2023-12-12T03:24:22.836Z,1.52
2023-12-12T03:26:49.685Z,1.77
2023-12-12T03:29:16.512Z,2.28
2023-12-12T03:31:43.370Z,1.50
2023-12-12T03:34:10.341Z,1.70
2023-12-12T03:36:41.474Z,1.80
2023-12-12T03:39:08.281Z,1.50
2023-12-12T03:41:35.130Z,1.17
2023-12-12T03:44:01.935Z,1.58
2023-12-12T03:46:28.896Z,1.70
2023-12-12T03:48:55.955Z,1.58
2023-12-12T03:51:22.821Z,1.58
2023-12-12T03:53:49.701Z,1.42
2023-12-12T03:56:16.595Z,1.20
2023-12-12T03:58:43.451Z,1.48
2023-12-12T04:01:10.393Z,1.45
2023-12-12T04:03:37.470Z,1.50
2023-12-12T04:06:05.128Z,1.38
2023-12-12T04:08:32.081Z,1.60
2023-12-12T04:10:58.944Z,1.20
2023-12-12T04:13:25.794Z,1.48
2023-12-12T04:15:53.025Z,1.38
2023-12-12T04:18:19.990Z,1.15
2023-12-12T04:20:46.859Z,1.27
2023-12-12T04:23:13.660Z,1.30
2023-12-12T04:25:40.587Z,1.17
2023-12-12T04:28:08.609Z,1.10
2023-12-12T04:30:35.557Z,1.20
2023-12-12T04:33:02.399Z,1.40
2023-12-12T04:35:29.290Z,1.58
2023-12-12T04:37:56.135Z,1.17
2023-12-12T04:40:28.517Z,1.20
2023-12-12T04:42:55.566Z,1.00
2023-12-12T04:45:22.396Z,1.20
2023-12-12T04:47:49.485Z,1.15
2023-12-12T04:50:16.680Z,1.20
2023-12-12T04:52:43.593Z,1.20
2023-12-12T04:55:11.574Z,0.75
2023-12-12T04:57:39.058Z,0.95
2023-12-12T05:00:14.105Z,0.73
2023-12-12T05:02:41.671Z,0.52
2023-12-12T05:05:09.305Z,0.80
2023-12-12T05:07:36.396Z,0.55
2023-12-12T05:10:03.556Z,0.50
2023-12-12T05:12:32.662Z,0.60
2023-12-12T05:15:00.900Z,0.80
2023-12-12T05:17:27.859Z,0.50
2023-12-12T05:19:56.914Z,0.40
2023-12-12T05:22:23.939Z,0.40
2023-12-12T05:24:50.830Z,0.47
2023-12-12T05:27:17.642Z,0.40
2023-12-12T05:29:44.441Z,0.40
2023-12-12T05:32:11.895Z,0.52
2023-12-12T05:34:38.843Z,0.40
2023-12-12T05:37:05.827Z,0.30
2023-12-12T05:39:32.650Z,0.40
2023-12-12T05:41:59.523Z,0.47
2023-12-12T05:44:26.602Z,0.40
2023-12-12T05:46:53.409Z,0.22
2023-12-12T05:49:22.710Z,0.50
2023-12-12T05:51:49.660Z,0.43
2023-12-12T05:54:16.564Z,0.30
2023-12-12T05:56:46.796Z,0.35
2023-12-12T05:59:16.537Z,0.40
2023-12-12T06:01:43.731Z,0.43
2023-12-12T06:04:14.728Z,0.45
2023-12-12T06:06:43.577Z,0.30
2023-12-12T06:09:11.774Z,0.30
2023-12-12T06:11:38.804Z,0.30
2023-12-12T06:14:06.490Z,0.30
2023-12-12T06:16:34.711Z,0.20
2023-12-12T06:19:06.002Z,0.30
2023-12-12T06:21:34.066Z,0.28
2023-12-12T06:24:04.669Z,0.30
2023-12-12T06:26:32.225Z,0.20
2023-12-12T06:28:59.188Z,0.40
2023-12-12T06:31:26.330Z,0.55
2023-12-12T06:33:54.086Z,0.47
2023-12-12T06:36:21.542Z,0.30
2023-12-12T06:38:48.755Z,0.40
2023-12-12T06:41:15.781Z,0.45
2023-12-12T06:43:44.324Z,0.52
2023-12-12T06:46:11.637Z,0.20
2023-12-12T06:48:39.990Z,0.80
2023-12-12T06:51:07.835Z,0.30
2023-12-12T06:53:34.892Z,0.70
2023-12-12T06:56:01.800Z,0.70
2023-12-12T06:58:28.704Z,1.20
2023-12-12T07:00:56.091Z,0.80
2023-12-12T07:03:25.820Z,0.70
2023-12-12T07:05:53.243Z,0.82
2023-12-12T07:08:20.733Z,0.82
2023-12-12T07:10:47.871Z,0.90
2023-12-12T07:13:14.876Z,0.82
2023-12-12T07:15:41.840Z,0.60
2023-12-12T07:18:12.875Z,0.70
2023-12-12T07:20:39.935Z,0.88
2023-12-12T07:23:07.201Z,0.80
2023-12-12T07:25:35.565Z,0.80
2023-12-12T07:28:03.044Z,0.80
2023-12-12T07:30:30.019Z,0.70
2023-12-12T07:32:57.388Z,0.80
2023-12-12T07:35:24.985Z,0.60
2023-12-12T07:37:52.141Z,0.80
2023-12-12T07:40:19.346Z,0.70
2023-12-12T07:42:46.803Z,1.00
2023-12-12T07:45:13.687Z,0.90
2023-12-12T07:47:43.487Z,1.10
2023-12-12T07:50:11.537Z,0.80
2023-12-12T07:52:39.162Z,0.98
2023-12-12T07:55:07.283Z,0.70
2023-12-12T07:57:34.879Z,0.88
2023-12-12T08:00:02.063Z,0.82
2023-12-12T08:02:28.917Z,0.70
2023-12-12T08:04:55.958Z,0.80
2023-12-12T08:07:24.258Z,0.77
2023-12-12T08:09:51.403Z,1.02
2023-12-12T08:12:18.390Z,1.08
2023-12-12T08:14:47.461Z,1.00
2023-12-12T08:17:15.889Z,1.00
2023-12-12T08:19:43.252Z,0.82
2023-12-12T08:22:10.323Z,0.80
2023-12-12T08:24:37.242Z,1.10
2023-12-12T08:27:04.178Z,1.17
2023-12-12T08:29:32.573Z,1.23
2023-12-12T08:31:59.699Z,1.60
2023-12-12T08:34:26.826Z,1.50
2023-12-12T08:36:53.751Z,1.40
2023-12-12T08:39:20.694Z,1.40
2023-12-12T08:41:47.573Z,1.00
2023-12-12T08:44:14.450Z,1.27
2023-12-12T08:46:44.984Z,1.42
2023-12-12T08:49:12.227Z,1.27
2023-12-12T08:51:40.608Z,1.45
2023-12-12T08:54:07.781Z,1.20
2023-12-12T08:56:34.820Z,1.27
2023-12-12T08:59:01.717Z,1.20
2023-12-12T09:01:28.695Z,1.38
2023-12-12T09:03:56.074Z,1.55
2023-12-12T09:06:23.344Z,1.30
2023-12-12T09:08:50.179Z,1.65
2023-12-12T09:11:17.051Z,1.40
2023-12-12T09:13:44.378Z,1.15
2023-12-12T09:16:11.560Z,1.40
2023-12-12T09:18:38.903Z,1.40
2023-12-12T09:21:06.493Z,1.42
2023-12-12T09:23:33.361Z,1.55
2023-12-12T09:26:00.504Z,1.45
2023-12-12T09:28:27.459Z,1.98
2023-12-12T09:30:54.445Z,1.73
2023-12-12T09:33:21.356Z,1.70
2023-12-12T09:35:48.217Z,1.58
2023-12-12T09:38:15.079Z,1.38
2023-12-12T09:40:41.987Z,2.00
2023-12-12T09:43:11.586Z,1.50
2023-12-12T09:45:38.967Z,1.33
2023-12-12T09:48:07.090Z,2.00
2023-12-12T09:50:34.551Z,1.65
2023-12-12T09:53:01.849Z,1.83
2023-12-12T09:55:29.871Z,2.28
2023-12-12T09:57:56.813Z,1.85
2023-12-12T10:00:23.681Z,1.50
2023-12-12T10:02:52.024Z,1.80
2023-12-12T10:05:19.122Z,1.92
2023-12-12T10:07:54.958Z,1.90
2023-12-12T10:10:25.268Z,1.88
2023-12-12T10:12:52.135Z,2.30
2023-12-12T10:15:28.434Z,2.03
2023-12-12T10:17:56.240Z,2.35
2023-12-12T10:20:29.942Z,2.17
2023-12-12T10:23:01.145Z,2.22
2023-12-12T10:25:31.746Z,2.60
2023-12-12T10:27:59.267Z,2.58
2023-12-12T10:30:27.422Z,2.53
2023-12-12T10:32:54.902Z,2.50
2023-12-12T10:35:23.084Z,3.15
2023-12-12T10:37:50.375Z,2.70
2023-12-12T10:40:18.992Z,2.83
2023-12-12T10:42:46.101Z,3.20
2023-12-12T10:45:13.879Z,2.03
2023-12-12T10:47:42.189Z,2.15
2023-12-12T10:50:15.017Z,2.10
2023-12-12T10:52:42.937Z,2.00
2023-12-12T10:55:10.842Z,1.45
2023-12-12T10:57:38.835Z,1.92
2023-12-12T11:00:16.870Z,1.42
2023-12-12T11:02:46.388Z,1.70
2023-12-12T11:05:14.046Z,1.35
2023-12-12T11:07:41.543Z,1.92
2023-12-12T11:10:09.926Z,2.28
2023-12-12T11:12:53.741Z,1.45
2023-12-12T11:15:21.479Z,1.50
2023-12-12T11:17:49.131Z,1.17
2023-12-12T11:20:17.796Z,1.42
2023-12-12T11:22:47.297Z,1.48
2023-12-12T11:25:20.759Z,1.50
2023-12-12T11:27:51.324Z,1.13
2023-12-12T11:30:18.947Z,1.88
2023-12-12T11:32:46.189Z,1.13
2023-12-12T11:35:27.306Z,1.35
2023-12-12T11:37:55.484Z,1.70
2023-12-12T11:40:24.811Z,1.60
2023-12-12T11:42:53.306Z,1.52
2023-12-12T11:45:33.436Z,1.52
2023-12-12T11:48:01.439Z,1.70
2023-12-12T11:50:28.307Z,1.50
2023-12-12T11:52:55.221Z,1.40
2023-12-12T11:55:23.882Z,1.30
2023-12-12T11:57:50.814Z,1.30
2023-12-12T12:00:22.017Z,1.08
2023-12-12T12:02:49.065Z,1.80
2023-12-12T12:05:16.239Z,2.00
2023-12-12T12:07:44.090Z,2.20
2023-12-12T12:10:11.177Z,2.30
2023-12-12T12:12:38.097Z,1.83
2023-12-12T12:15:06.888Z,2.47
2023-12-12T12:17:37.048Z,2.10
2023-12-12T12:20:04.690Z,1.48
2023-12-12T12:22:31.966Z,1.30
2023-12-12T12:24:59.228Z,1.25
2023-12-12T12:27:26.511Z,1.50
2023-12-12T12:30:00.909Z,1.85
2023-12-12T12:32:27.830Z,1.70
2023-12-12T12:35:10.366Z,1.40
2023-12-12T12:37:37.857Z,1.63
2023-12-12T12:40:09.052Z,1.48
2023-12-12T12:42:40.075Z,1.90
2023-12-12T12:45:07.513Z,1.40
2023-12-12T12:47:34.880Z,1.35
2023-12-12T12:50:02.878Z,1.40
2023-12-12T12:52:30.179Z,1.75
2023-12-12T12:54:57.276Z,1.30
2023-12-12T12:57:24.538Z,1.50
2023-12-12T12:59:51.372Z,1.30
2023-12-12T13:02:18.197Z,1.30
2023-12-12T13:04:45.126Z,0.90
2023-12-12T13:07:12.032Z,1.05
2023-12-12T13:09:38.990Z,1.00
2023-12-12T13:12:05.938Z,0.80
2023-12-12T13:14:32.833Z,0.98
2023-12-12T13:16:59.979Z,0.93
2023-12-12T13:19:29.913Z,1.08
2023-12-12T13:21:56.856Z,0.75
2023-12-12T13:24:23.912Z,0.77
2023-12-12T13:26:51.132Z,0.70
2023-12-12T13:29:18.343Z,0.90
2023-12-12T13:31:45.332Z,0.85
2023-12-12T13:34:12.744Z,0.80
2023-12-12T13:36:41.337Z,1.30
2023-12-12T13:39:16.067Z,1.00
2023-12-12T13:41:46.028Z,1.17
2023-12-12T13:44:13.282Z,0.90
2023-12-12T13:46:40.248Z,1.00
2023-12-12T13:49:08.006Z,1.20
2023-12-12T13:51:43.768Z,1.25
2023-12-12T13:54:14.178Z,1.05
2023-12-12T13:56:41.358Z,1.02
2023-12-12T13:59:08.466Z,0.90
2023-12-12T14:01:35.815Z,1.30
2023-12-12T14:04:03.998Z,1.15
2023-12-12T14:06:31.074Z,0.90
2023-12-12T14:08:57.880Z,1.02
2023-12-12T14:11:26.466Z,0.85
2023-12-12T14:13:53.682Z,0.95
2023-12-12T14:16:28.031Z,1.08
2023-12-12T14:18:57.160Z,1.00
2023-12-12T14:21:24.218Z,0.90
2023-12-12T14:23:51.100Z,0.90
2023-12-12T14:26:18.957Z,0.85
2023-12-12T14:28:49.993Z,0.70
2023-12-12T14:31:18.233Z,1.00
2023-12-12T14:33:45.565Z,0.90
2023-12-12T14:36:12.533Z,0.70
2023-12-12T14:38:39.430Z,1.00
2023-12-12T14:41:06.432Z,1.33
2023-12-12T14:43:33.586Z,1.40
2023-12-12T14:46:00.734Z,1.48
2023-12-12T14:48:29.532Z,1.60
2023-12-12T14:50:56.614Z,1.75
2023-12-12T14:53:23.505Z,2.10
2023-12-12T14:55:50.488Z,1.58
2023-12-12T14:58:17.917Z,1.80
2023-12-12T15:00:44.870Z,1.10
2023-12-12T15:03:11.809Z,1.05
2023-12-12T15:05:38.860Z,0.98
2023-12-12T15:08:05.710Z,0.73
2023-12-12T15:10:32.629Z,0.70
2023-12-12T15:12:59.650Z,0.73
2023-12-12T15:15:26.562Z,0.90
2023-12-12T15:17:53.457Z,0.63
2023-12-12T15:20:20.432Z,0.77
2023-12-12T15:22:47.483Z,0.73
2023-12-12T15:25:21.528Z,0.77
2023-12-12T15:28:22.889Z,0.60
2023-12-12T15:30:41.937Z,0.98
2023-12-12T15:33:09.052Z,0.80
2023-12-12T15:35:35.952Z,0.80
2023-12-12T15:38:02.838Z,1.00
2023-12-12T15:40:29.685Z,0.63
2023-12-12T15:42:56.585Z,1.17
2023-12-12T15:45:23.442Z,0.80
2023-12-12T15:47:50.439Z,0.80
2023-12-12T15:50:17.357Z,0.68
2023-12-12T15:52:44.243Z,0.60
2023-12-12T15:55:11.187Z,1.13
2023-12-12T15:57:38.284Z,0.70
2023-12-12T16:00:13.793Z,0.80
2023-12-12T16:02:41.634Z,0.73
2023-12-12T16:05:11.649Z,0.82
2023-12-12T16:07:38.778Z,1.00
2023-12-12T16:10:08.082Z,0.90
2023-12-12T16:12:35.967Z,1.05
2023-12-12T16:15:06.298Z,1.13
2023-12-12T16:17:34.021Z,1.20
2023-12-12T16:20:07.398Z,1.17
2023-12-12T16:22:35.214Z,1.27
2023-12-12T16:25:03.182Z,1.23
2023-12-12T16:27:30.348Z,1.40
2023-12-12T16:29:57.356Z,1.40
2023-12-12T16:32:24.229Z,1.67
2023-12-12T16:34:53.019Z,1.50
2023-12-12T16:37:20.120Z,1.55
2023-12-12T16:39:47.028Z,1.98
2023-12-12T16:42:16.017Z,1.77
2023-12-12T16:44:43.439Z,1.75
2023-12-12T16:47:10.797Z,1.77
2023-12-12T16:49:38.061Z,1.80
2023-12-12T16:52:05.181Z,1.60
2023-12-12T16:54:32.274Z,1.95
2023-12-12T16:57:02.552Z,1.90
2023-12-12T16:59:29.603Z,1.70
2023-12-12T17:01:58.170Z,1.90
2023-12-12T17:04:30.185Z,1.58
2023-12-12T17:06:57.425Z,1.63
2023-12-12T17:09:24.418Z,1.90
2023-12-12T17:11:51.315Z,1.90
2023-12-12T17:14:18.148Z,1.60
2023-12-12T17:16:45.426Z,1.50
2023-12-12T17:19:12.926Z,1.48
2023-12-12T17:21:40.074Z,1.40
2023-12-12T17:24:07.045Z,1.23
2023-12-12T17:26:33.987Z,1.33
2023-12-12T17:29:01.249Z,1.60
2023-12-12T17:31:28.617Z,1.70
2023-12-12T17:33:55.857Z,1.85
2023-12-12T17:36:25.316Z,1.45
2023-12-12T17:38:52.183Z,2.22
2023-12-12T17:41:19.042Z,1.83
2023-12-12T17:43:46.127Z,1.58
2023-12-12T17:46:13.513Z,1.85
2023-12-12T17:48:40.777Z,1.85
2023-12-12T17:51:07.889Z,1.88
2023-12-12T17:53:35.252Z,1.67
2023-12-12T17:56:02.227Z,1.90
2023-12-12T17:58:29.467Z,1.83
2023-12-12T18:00:56.524Z,1.58
2023-12-12T18:03:23.881Z,1.60
2023-12-12T18:05:52.624Z,1.60
2023-12-12T18:08:19.767Z,2.00
2023-12-12T18:10:46.803Z,1.73
2023-12-12T18:13:13.827Z,1.98
2023-12-12T18:15:40.699Z,1.38
2023-12-12T18:18:14.114Z,1.88
2023-12-12T18:20:41.401Z,1.75
2023-12-12T18:23:08.397Z,2.28
2023-12-12T18:25:41.694Z,1.98
2023-12-12T18:28:09.062Z,1.63
2023-12-12T18:30:44.206Z,1.77
2023-12-12T18:33:11.422Z,2.17
2023-12-12T18:35:38.847Z,2.15
2023-12-12T18:38:05.908Z,2.08
2023-12-12T18:40:33.106Z,2.10
2023-12-12T18:42:59.950Z,1.83
2023-12-12T18:45:27.195Z,2.20
2023-12-12T18:47:54.845Z,2.05
2023-12-12T18:50:21.893Z,2.22
2023-12-12T18:52:48.957Z,1.60
2023-12-12T18:55:15.955Z,1.92
2023-12-12T18:57:42.896Z,1.63
2023-12-12T19:00:12.750Z,1.70
2023-12-12T19:02:43.126Z,1.42
2023-12-12T19:05:14.102Z,1.70
2023-12-12T19:07:42.122Z,1.52
2023-12-12T19:10:11.098Z,1.75
2023-12-12T19:12:38.426Z,1.17
2023-12-12T19:15:06.974Z,1.38
2023-12-12T19:17:34.170Z,1.60
2023-12-12T19:20:02.560Z,1.27
2023-12-12T19:22:29.522Z,1.30
2023-12-12T19:24:56.365Z,1.40
2023-12-12T19:27:23.290Z,1.20
2023-12-12T19:29:50.176Z,1.30
2023-12-12T19:32:18.284Z,1.50
2023-12-12T19:34:45.446Z,1.70
2023-12-12T19:37:14.009Z,1.80
2023-12-12T19:39:47.086Z,1.40
2023-12-12T19:42:17.441Z,1.27
2023-12-12T19:44:45.206Z,1.40
2023-12-12T19:47:13.102Z,1.48
2023-12-12T19:49:44.008Z,1.50
2023-12-12T19:52:11.004Z,1.58
2023-12-12T19:54:38.990Z,1.55
2023-12-12T19:57:05.982Z,1.70
2023-12-12T19:59:32.934Z,1.10
2023-12-12T20:01:59.862Z,1.40
2023-12-12T20:04:28.048Z,1.40
2023-12-12T20:06:55.388Z,1.40
2023-12-12T20:09:22.215Z,1.60
2023-12-12T20:11:49.051Z,1.70
2023-12-12T20:14:15.910Z,1.67
2023-12-12T20:16:42.801Z,1.80
2023-12-12T20:19:09.875Z,1.63
2023-12-12T20:21:37.709Z,1.25
2023-12-12T20:24:04.804Z,1.60
2023-12-12T20:26:31.985Z,1.40
2023-12-12T20:28:59.556Z,1.48
2023-12-12T20:31:26.529Z,1.27
2023-12-12T20:33:53.485Z,1.00
2023-12-12T20:36:20.455Z,1.55
2023-12-12T20:38:47.915Z,1.13
2023-12-12T20:41:14.768Z,1.45
2023-12-12T20:43:42.520Z,1.30
2023-12-12T20:46:09.554Z,1.33
2023-12-12T20:48:36.451Z,1.65
2023-12-12T20:51:03.519Z,1.40
2023-12-12T20:53:31.157Z,1.02
2023-12-12T20:55:58.316Z,1.65
2023-12-12T20:58:26.897Z,1.52
2023-12-12T21:00:53.947Z,1.50
2023-12-12T21:03:20.944Z,1.30
2023-12-12T21:05:50.040Z,1.55
2023-12-12T21:08:20.124Z,1.23
2023-12-12T21:10:47.122Z,1.42
2023-12-12T21:13:14.967Z,1.40
2023-12-12T21:15:41.864Z,1.08
2023-12-12T21:18:08.786Z,1.52
2023-12-12T21:20:35.725Z,1.08
2023-12-12T21:23:02.786Z,1.27
2023-12-12T21:25:29.651Z,1.20
2023-12-12T21:27:56.592Z,1.23
2023-12-12T21:30:23.437Z,1.15
2023-12-12T21:32:50.349Z,1.15
2023-12-12T21:35:17.249Z,1.08
2023-12-12T21:37:44.232Z,0.90
2023-12-12T21:40:11.977Z,1.10
2023-12-12T21:42:39.198Z,1.20
2023-12-12T21:45:06.803Z,1.48
2023-12-12T21:47:34.037Z,1.17
2023-12-12T21:50:01.200Z,1.40
2023-12-12T21:52:28.784Z,0.75
2023-12-12T21:54:55.720Z,1.00
2023-12-12T21:57:22.564Z,1.10
2023-12-12T21:59:49.408Z,0.88
2023-12-12T22:02:16.311Z,0.90
2023-12-12T22:04:43.220Z,1.00
2023-12-12T22:07:10.158Z,1.10
2023-12-12T22:09:37.165Z,1.17
2023-12-12T22:12:04.879Z,1.00
2023-12-12T22:14:31.700Z,0.82
2023-12-12T22:16:58.514Z,0.98
2023-12-12T22:19:25.459Z,0.90
2023-12-12T22:21:53.326Z,0.82
2023-12-12T22:24:21.138Z,1.15
2023-12-12T22:26:48.043Z,1.00
2023-12-12T22:29:14.948Z,1.10
2023-12-12T22:31:42.506Z,1.08
2023-12-12T22:34:09.855Z,0.70
2023-12-12T22:36:36.847Z,0.75
2023-12-12T22:39:12.048Z,0.80
2023-12-12T22:41:42.735Z,0.77
2023-12-12T22:44:09.854Z,1.30
2023-12-12T22:46:36.874Z,0.82
2023-12-12T22:49:03.909Z,1.02
2023-12-12T22:51:30.816Z,1.13
2023-12-12T22:53:57.716Z,1.05
2023-12-12T22:56:27.452Z,1.00
2023-12-12T22:58:54.542Z,1.15
2023-12-12T23:01:25.125Z,1.40
2023-12-12T23:03:53.062Z,1.60
2023-12-12T23:06:22.205Z,1.05
2023-12-12T23:08:50.516Z,1.20
2023-12-12T23:11:18.184Z,1.33
2023-12-12T23:13:45.174Z,1.17
2023-12-12T23:16:12.670Z,0.88
2023-12-12T23:18:40.206Z,0.75
2023-12-12T23:21:07.730Z,1.23
2023-12-12T23:23:35.064Z,1.30
2023-12-12T23:26:01.949Z,1.35
2023-12-12T23:28:28.826Z,1.23
2023-12-12T23:31:04.715Z,1.30
2023-12-12T23:33:36.594Z,1.58
2023-12-12T23:36:03.975Z,1.00
2023-12-12T23:38:30.827Z,1.10
2023-12-12T23:40:57.680Z,0.95
2023-12-12T23:43:24.620Z,1.40
2023-12-12T23:45:51.699Z,1.52
2023-12-12T23:48:19.128Z,1.20
2023-12-12T23:50:46.349Z,1.02
2023-12-12T23:53:13.252Z,1.35
2023-12-12T23:55:40.342Z,1.67
2023-12-12T23:58:07.566Z,1.38
